Time;durP1;ratioP1;P1;durP2;ratioP2;P2;SDS_P1;SDS_P2;PMS_P1;PMS_P2;Temp;Humidity;BMP_temperature;BMP_pressure;BME280_temperature;BME280_humidity;BME280_pressure;Samples;Min_cycle;Max_cycle;Signal;HPM_P1;HPM_P2
2020/01/15 00:01:02;;;;;;;10.4;6.7;;;;;;;5.64;60.78613;963.4075;;;;
2020/01/15 00:03:27;;;;;;;9.8;6.4;;;;;;;5.61;61.19824;963.4011;;;;
2020/01/15 00:05:52;;;;;;;11;6.2;;;;;;;5.58;61.32129;963.4274;;;;
2020/01/15 00:08:17;;;;;;;11.9;6.5;;;;;;;5.59;61.24121;963.3823;;;;
2020/01/15 00:10:42;;;;;;;10.8;6.9;;;;;;;5.52;61.3125;963.3638;;;;
2020/01/15 00:13:07;;;;;;;11.5;6.7;;;;;;;5.41;61.51758;963.3367;;;;
2020/01/15 00:15:32;;;;;;;14.1;7;;;;;;;5.35;61.60156;963.2838;;;;
2020/01/15 00:17:57;;;;;;;11.8;7.1;;;;;;;5.26;61.54199;963.2997;;;;
2020/01/15 00:20:23;;;;;;;12.5;7.5;;;;;;;5.23;61.21289;963.2924;;;;
2020/01/15 00:22:49;;;;;;;13.4;7.9;;;;;;;5.32;60.54297;963.269;;;;
2020/01/15 00:27:38;;;;;;;13.9;7.7;;;;;;;5.33;60.56738;963.2386;;;;
2020/01/15 00:30:03;;;;;;;12.4;7.4;;;;;;;5.42;60.47656;963.278;;;;
2020/01/15 00:32:28;;;;;;;11.4;7.5;;;;;;;5.41;60.78809;963.2592;;;;
2020/01/15 00:34:53;;;;;;;14.3;7.7;;;;;;;5.26;61.22852;963.2651;;;;
2020/01/15 00:37:18;;;;;;;12.7;7.7;;;;;;;5.31;61.42285;963.2853;;;;
2020/01/15 00:39:44;;;;;;;12.4;7.9;;;;;;;5.24;61.4707;963.3047;;;;
2020/01/15 00:42:09;;;;;;;12.1;7.6;;;;;;;5.25;61.34277;963.2968;;;;
2020/01/15 00:44:34;;;;;;;13.3;7.5;;;;;;;5.09;61.58789;963.2701;;;;
2020/01/15 00:46:59;;;;;;;11.5;7.6;;;;;;;5.04;61.44141;963.3431;;;;
2020/01/15 00:49:24;;;;;;;11.1;7.7;;;;;;;5.06;61.61621;963.3409;;;;
2020/01/15 00:51:49;;;;;;;11.4;7.5;;;;;;;5.01;62.25781;963.4124;;;;
2020/01/15 00:54:14;;;;;;;9.3;7.2;;;;;;;4.93;62.8125;963.4117;;;;
2020/01/15 00:56:40;;;;;;;10.7;7.1;;;;;;;4.94;62.66406;963.4283;;;;
2020/01/15 00:59:05;;;;;;;10.6;7.1;;;;;;;4.87;63.12793;963.4354;;;;
2020/01/15 01:01:30;;;;;;;10.2;6.8;;;;;;;4.84;63.65527;963.4587;;;;
2020/01/15 01:03:55;;;;;;;9.6;6.1;;;;;;;4.86;64.13281;963.4817;;;;
2020/01/15 01:06:20;;;;;;;9.5;6;;;;;;;4.82;64.01074;963.5148;;;;
2020/01/15 01:09:06;;;;;;;7.9;5.7;;;;;;;4.86;63.78516;963.5034;;;;
2020/01/15 01:11:19;;;;;;;9.9;6.2;;;;;;;4.79;63.56738;963.5016;;;;
2020/01/15 01:13:50;;;;;;;8.8;5.8;;;;;;;4.69;64.13086;963.5031;;;;
2020/01/15 01:18:33;;;;;;;8.6;6.1;;;;;;;4.65;63.5918;963.4911;;;;
2020/01/15 01:20:51;;;;;;;25.2;16.5;;;;;;;4.65;63.43066;963.4203;;;;
2020/01/15 01:23:15;;;;;;;17.7;10.7;;;;;;;4.73;63.40625;963.426;;;;
2020/01/15 01:25:41;;;;;;;23.5;14.1;;;;;;;4.68;63.49219;963.3911;;;;
2020/01/15 01:28:06;;;;;;;19.9;12.1;;;;;;;4.56;63.31348;963.4434;;;;
2020/01/15 01:30:31;;;;;;;13.5;8.5;;;;;;;4.49;63.38379;963.4247;;;;
2020/01/15 01:32:56;;;;;;;11.5;7.8;;;;;;;4.42;63.56934;963.3954;;;;
2020/01/15 01:35:21;;;;;;;11.6;8.1;;;;;;;4.43;63.33984;963.3929;;;;
2020/01/15 01:37:46;;;;;;;12.1;7.8;;;;;;;4.38;63.42578;963.3756;;;;
2020/01/15 01:40:11;;;;;;;9.2;6.4;;;;;;;4.34;63.58105;963.3375;;;;
2020/01/15 01:42:36;;;;;;;10.2;6.4;;;;;;;4.34;63.24609;963.3099;;;;
2020/01/15 01:45:01;;;;;;;10.2;6.5;;;;;;;4.21;63.33008;963.3248;;;;
2020/01/15 01:47:26;;;;;;;10.4;7.1;;;;;;;4.23;63.49414;963.2637;;;;
2020/01/15 01:49:51;;;;;;;10.7;6.9;;;;;;;4.17;63.47559;963.2483;;;;
2020/01/15 01:52:16;;;;;;;10.7;6.8;;;;;;;4.14;63.43555;963.3607;;;;
2020/01/15 01:54:42;;;;;;;10.4;7;;;;;;;4.29;62.24512;963.3514;;;;
2020/01/15 01:57:07;;;;;;;10.3;6.9;;;;;;;4.38;62.44238;963.4044;;;;
2020/01/15 01:59:32;;;;;;;11.6;7;;;;;;;4.34;62.54102;963.4033;;;;
2020/01/15 02:01:57;;;;;;;8.6;6.7;;;;;;;4.34;62.40234;963.3326;;;;
2020/01/15 02:04:22;;;;;;;9;6.3;;;;;;;4.44;62.48633;963.2898;;;;
2020/01/15 02:06:47;;;;;;;9.1;6.8;;;;;;;4.29;62.83496;963.3045;;;;
2020/01/15 02:09:12;;;;;;;9.6;6.5;;;;;;;4.31;63.05566;963.3318;;;;
2020/01/15 02:11:37;;;;;;;8.1;6.1;;;;;;;4.31;63.40234;963.4004;;;;
2020/01/15 02:14:02;;;;;;;9.3;6.2;;;;;;;4.23;63.77344;963.4405;;;;
2020/01/15 02:16:27;;;;;;;9.6;6.2;;;;;;;4;64.0957;963.4283;;;;
2020/01/15 02:18:53;;;;;;;7.9;5.9;;;;;;;4.09;63.83105;963.4606;;;;
2020/01/15 02:21:18;;;;;;;9.3;6.7;;;;;;;4.22;63.24023;963.4758;;;;
2020/01/15 02:23:43;;;;;;;8.9;6.5;;;;;;;4.17;63.25488;963.4263;;;;
2020/01/15 02:26:08;;;;;;;8.8;6.5;;;;;;;4.25;63.14063;963.3869;;;;
2020/01/15 02:28:33;;;;;;;10.5;7;;;;;;;4.27;62.79688;963.4197;;;;
2020/01/15 02:30:58;;;;;;;10.9;7.1;;;;;;;4.25;62.82715;963.3973;;;;
2020/01/15 02:33:23;;;;;;;10.3;6.7;;;;;;;4.03;63.41797;963.4327;;;;
2020/01/15 02:35:48;;;;;;;11.1;6.8;;;;;;;4.03;63.52344;963.4841;;;;
2020/01/15 02:38:13;;;;;;;9.6;6.7;;;;;;;3.97;64.1709;963.4348;;;;
2020/01/15 02:40:39;;;;;;;9.8;6.9;;;;;;;3.94;64.09766;963.4088;;;;
2020/01/15 02:43:04;;;;;;;11.9;6.7;;;;;;;3.87;64.42188;963.4291;;;;
2020/01/15 02:45:29;;;;;;;10.4;7;;;;;;;3.9;64.41504;963.427;;;;
2020/01/15 02:47:54;;;;;;;10.3;7.2;;;;;;;3.81;64.51758;963.3759;;;;
2020/01/15 02:50:19;;;;;;;10.3;7.1;;;;;;;3.81;64.74707;963.4019;;;;
2020/01/15 02:52:44;;;;;;;11.5;6.8;;;;;;;3.89;64.50684;963.4338;;;;
2020/01/15 02:55:09;;;;;;;11;6.9;;;;;;;3.75;64.55469;963.4321;;;;
2020/01/15 02:57:34;;;;;;;11.5;7.4;;;;;;;3.8;64.42285;963.4666;;;;
2020/01/15 03:00:00;;;;;;;10.3;7.1;;;;;;;3.58;65.28906;963.4774;;;;
2020/01/15 03:02:25;;;;;;;10.4;7;;;;;;;3.58;65.17383;963.4789;;;;
2020/01/15 03:04:50;;;;;;;12.1;7.5;;;;;;;3.62;65.14551;963.4009;;;;
2020/01/15 03:07:42;;;;;;;10.7;7.1;;;;;;;3.67;64.80762;963.4077;;;;
2020/01/15 03:09:44;;;;;;;10.1;7.4;;;;;;;3.79;64.58301;963.4595;;;;
2020/01/15 03:12:05;;;;;;;11.8;7.1;;;;;;;3.69;64.92578;963.432;;;;
2020/01/15 03:14:30;;;;;;;10;7.1;;;;;;;3.69;65.13281;963.4192;;;;
2020/01/15 03:16:56;;;;;;;11;7;;;;;;;3.64;65.48242;963.4;;;;
2020/01/15 03:19:21;;;;;;;8;5.9;;;;;;;3.74;64.97949;963.4653;;;;
2020/01/15 03:21:46;;;;;;;10.9;6.9;;;;;;;3.56;65.30859;963.4249;;;;
2020/01/15 03:24:11;;;;;;;10.7;6.6;;;;;;;3.54;65.7334;963.481;;;;
2020/01/15 03:26:36;;;;;;;11.4;6.3;;;;;;;3.55;65.85938;963.448;;;;
2020/01/15 03:29:01;;;;;;;9.5;6.6;;;;;;;3.48;65.75781;963.3675;;;;
2020/01/15 03:31:27;;;;;;;9.3;6.4;;;;;;;3.48;65.60938;963.4026;;;;
2020/01/15 03:33:52;;;;;;;9.9;6.7;;;;;;;3.5;65.53125;963.3901;;;;
2020/01/15 03:36:17;;;;;;;9.6;6.7;;;;;;;3.53;65.30469;963.3544;;;;
2020/01/15 03:38:42;;;;;;;10.7;6.7;;;;;;;3.47;65.45703;963.397;;;;
2020/01/15 03:41:07;;;;;;;9.2;6.5;;;;;;;3.56;64.91699;963.3354;;;;
2020/01/15 03:43:32;;;;;;;9.8;6.6;;;;;;;3.59;65.00293;963.2891;;;;
2020/01/15 03:45:57;;;;;;;9.4;6.6;;;;;;;3.43;65.51953;963.2648;;;;
2020/01/15 03:48:23;;;;;;;10.5;6.6;;;;;;;3.45;65.48926;963.3059;;;;
2020/01/15 03:50:48;;;;;;;10.3;6.8;;;;;;;3.54;65.14453;963.2406;;;;
2020/01/15 03:53:13;;;;;;;10.6;6.6;;;;;;;3.43;65.31152;963.2255;;;;
2020/01/15 03:55:38;;;;;;;9.8;6.7;;;;;;;3.56;64.92871;963.1836;;;;
2020/01/15 03:58:03;;;;;;;10.2;6.8;;;;;;;3.49;64.94238;963.2094;;;;
2020/01/15 04:02:26;;;;;;;10.3;7.1;;;;;;;3.37;65.25781;963.2717;;;;
2020/01/15 04:04:51;;;;;;;13.8;7.5;;;;;;;3.25;65.49219;963.3074;;;;
2020/01/15 04:07:16;;;;;;;10.6;6.6;;;;;;;3.29;65.54492;963.2595;;;;
2020/01/15 04:09:42;;;;;;;11;7;;;;;;;3.38;65.23438;963.2266;;;;
2020/01/15 04:12:07;;;;;;;9.8;6.7;;;;;;;3.4;65.07715;963.2528;;;;
2020/01/15 04:14:32;;;;;;;9.3;6.7;;;;;;;3.6;64.20703;963.1956;;;;
2020/01/15 04:19:37;;;;;;;9.9;6.2;;;;;;;3.45;65.31543;963.1869;;;;
2020/01/15 04:22:03;;;;;;;8.5;6.2;;;;;;;3.42;65.50684;963.217;;;;
2020/01/15 04:24:28;;;;;;;9.5;6.2;;;;;;;3.48;66.10352;963.2525;;;;
2020/01/15 04:26:53;;;;;;;9.8;6.4;;;;;;;3.45;65.98438;963.2784;;;;
2020/01/15 04:29:18;;;;;;;10.1;6.2;;;;;;;3.36;65.46191;963.2966;;;;
2020/01/15 04:31:43;;;;;;;9.7;6.4;;;;;;;3.21;65.71582;963.2813;;;;
2020/01/15 04:34:11;;;;;;;9.4;6.2;;;;;;;3.37;65.41895;963.2645;;;;
2020/01/15 04:36:33;;;;;;;8.8;6.2;;;;;;;3.35;65.39355;963.2347;;;;
2020/01/15 04:38:58;;;;;;;8.1;6;;;;;;;3.28;65.37109;963.2286;;;;
2020/01/15 04:41:23;;;;;;;8;6.1;;;;;;;3.3;65.38477;963.247;;;;
2020/01/15 04:43:48;;;;;;;8.6;6.3;;;;;;;3.28;65.00195;963.2511;;;;
2020/01/15 04:46:13;;;;;;;8.2;6.1;;;;;;;3.22;65.39551;963.2346;;;;
2020/01/15 04:48:38;;;;;;;9.8;6.1;;;;;;;3.32;65.62988;963.2673;;;;
2020/01/15 04:51:04;;;;;;;9.9;6;;;;;;;3.33;67.22168;963.2981;;;;
2020/01/15 04:53:29;;;;;;;10.7;6.1;;;;;;;3.26;68.29395;963.3805;;;;
2020/01/15 04:55:54;;;;;;;9.6;6;;;;;;;3.29;68.4375;963.3502;;;;
2020/01/15 04:58:19;;;;;;;11;6.5;;;;;;;3.35;68.48047;963.3828;;;;
2020/01/15 05:00:44;;;;;;;11.5;6.2;;;;;;;3.47;66.81738;963.3922;;;;
2020/01/15 05:03:09;;;;;;;9.1;6.3;;;;;;;3.29;67.14648;963.3591;;;;
2020/01/15 05:05:34;;;;;;;11;5.9;;;;;;;3.29;66.97363;963.3711;;;;
2020/01/15 05:08:00;;;;;;;9;6.3;;;;;;;3.21;66.79883;963.356;;;;
2020/01/15 05:10:25;;;;;;;10.7;6.5;;;;;;;3.2;66.58984;963.3362;;;;
2020/01/15 05:12:50;;;;;;;9.4;6.2;;;;;;;3.24;66.21582;963.3853;;;;
2020/01/15 05:15:15;;;;;;;9.1;6.2;;;;;;;3.19;66.58691;963.4458;;;;
2020/01/15 05:17:41;;;;;;;11.1;5.9;;;;;;;3.24;66.42383;963.4736;;;;
2020/01/15 05:20:06;;;;;;;8.3;5.9;;;;;;;3.12;66.16309;963.6266;;;;
2020/01/15 05:22:31;;;;;;;8.5;5.7;;;;;;;2.98;67.52441;963.7213;;;;
2020/01/15 05:24:56;;;;;;;8.8;6.1;;;;;;;2.96;67.96875;963.7006;;;;
2020/01/15 05:27:21;;;;;;;8.2;5.8;;;;;;;2.94;67.79199;963.6998;;;;
2020/01/15 05:29:46;;;;;;;7.7;5.7;;;;;;;3.03;66.87305;963.5695;;;;
2020/01/15 05:32:11;;;;;;;8.8;5.8;;;;;;;3.08;66.86035;963.5812;;;;
2020/01/15 05:34:36;;;;;;;8.8;6.1;;;;;;;2.93;67.72168;963.6583;;;;
2020/01/15 05:37:02;;;;;;;11.3;5.9;;;;;;;2.89;68.03809;963.6219;;;;
2020/01/15 05:39:27;;;;;;;8.1;5.7;;;;;;;2.81;68.50879;963.6526;;;;
2020/01/15 05:41:52;;;;;;;10.1;5.9;;;;;;;2.86;68.56348;963.7063;;;;
2020/01/15 05:44:17;;;;;;;9.6;5.7;;;;;;;2.9;67.47754;963.7324;;;;
2020/01/15 05:46:42;;;;;;;9.1;5.9;;;;;;;2.95;67.40332;963.7071;;;;
2020/01/15 05:49:11;;;;;;;9.2;5.8;;;;;;;2.94;66.94141;963.7614;;;;
2020/01/15 05:52:54;;;;;;;9.4;5.7;;;;;;;3.01;66.50195;963.752;;;;
2020/01/15 05:54:01;;;;;;;8.8;5.9;;;;;;;3.02;66.16992;963.7516;;;;
2020/01/15 05:56:23;;;;;;;8.3;5.7;;;;;;;3.02;65.98535;963.7508;;;;
2020/01/15 05:58:48;;;;;;;8.3;5.7;;;;;;;3.07;65.51074;963.7206;;;;
2020/01/15 06:01:14;;;;;;;8.5;5.7;;;;;;;2.96;65.74707;963.6403;;;;
2020/01/15 06:03:38;;;;;;;11.9;6.2;;;;;;;3.01;65.35156;963.5678;;;;
2020/01/15 06:06:03;;;;;;;11.2;6.6;;;;;;;3.07;65.19922;963.5183;;;;
2020/01/15 06:08:28;;;;;;;10.7;6.8;;;;;;;3.1;65.03125;963.4625;;;;
2020/01/15 06:10:53;;;;;;;13.3;6.7;;;;;;;3;65.29297;963.3808;;;;
2020/01/15 06:13:18;;;;;;;10.6;6.8;;;;;;;3.07;65.2002;963.298;;;;
2020/01/15 06:15:44;;;;;;;9.8;6.2;;;;;;;3;64.80957;963.3278;;;;
2020/01/15 06:18:09;;;;;;;11.3;7.4;;;;;;;3.12;64.75879;963.3918;;;;
2020/01/15 06:20:34;;;;;;;9.9;7.3;;;;;;;3.07;64.91211;963.3856;;;;
2020/01/15 06:22:59;;;;;;;11.5;7.3;;;;;;;3.03;64.98438;963.42;;;;
2020/01/15 06:25:34;;;;;;;11;6.3;;;;;;;2.91;65.51953;963.4611;;;;
2020/01/15 06:27:59;;;;;;;12.3;6.9;;;;;;;2.82;66.21973;963.499;;;;
2020/01/15 06:30:24;;;;;;;9;5.8;;;;;;;2.78;66.6748;963.4922;;;;
2020/01/15 06:32:50;;;;;;;10.7;6.1;;;;;;;2.61;67.0166;963.5042;;;;
2020/01/15 06:35:15;;;;;;;10.4;5.9;;;;;;;2.59;67.08203;963.5154;;;;
2020/01/15 06:37:40;;;;;;;9.5;6.1;;;;;;;2.46;67.37305;963.5831;;;;
2020/01/15 06:40:05;;;;;;;8.8;6.1;;;;;;;2.48;67.53516;963.5746;;;;
2020/01/15 06:42:30;;;;;;;14.5;6.7;;;;;;;2.51;67.10254;963.6017;;;;
2020/01/15 06:44:55;;;;;;;10.4;6.2;;;;;;;2.6;66.96777;963.5988;;;;
2020/01/15 06:47:20;;;;;;;9;6.2;;;;;;;2.66;66.64453;963.6016;;;;
2020/01/15 06:49:46;;;;;;;10;7;;;;;;;2.58;66.7334;963.6066;;;;
2020/01/15 06:52:11;;;;;;;10.2;6.7;;;;;;;2.6;66.59961;963.6107;;;;
2020/01/15 06:54:36;;;;;;;10;6.4;;;;;;;2.58;66.57324;963.6194;;;;
2020/01/15 06:57:01;;;;;;;10.2;6.6;;;;;;;2.67;66.23145;963.6027;;;;
2020/01/15 06:59:26;;;;;;;9.6;6.5;;;;;;;2.67;66.26563;963.5867;;;;
2020/01/15 07:01:51;;;;;;;9.5;6.5;;;;;;;2.76;66.11816;963.6478;;;;
2020/01/15 07:04:16;;;;;;;13;7.4;;;;;;;2.72;66.25;963.6655;;;;
2020/01/15 07:06:41;;;;;;;13.1;6.9;;;;;;;2.81;65.96582;963.6944;;;;
2020/01/15 07:09:07;;;;;;;14.8;9.4;;;;;;;2.85;65.59277;963.7059;;;;
2020/01/15 07:11:32;;;;;;;13.9;10.2;;;;;;;2.91;65.42773;963.7949;;;;
2020/01/15 07:13:57;;;;;;;14.7;10.4;;;;;;;2.8;65.5957;963.7603;;;;
2020/01/15 07:18:48;;;;;;;11.2;8.1;;;;;;;2.93;66.19141;963.8454;;;;
2020/01/15 07:21:17;;;;;;;13.8;8.2;;;;;;;3.12;64.72363;963.8911;;;;
2020/01/15 07:24:08;;;;;;;11.4;6.7;;;;;;;3.03;64.61621;963.9247;;;;
2020/01/15 07:28:41;;;;;;;8.3;5.4;;;;;;;3.99;61.55469;963.8519;;;;
2020/01/15 07:30:53;;;;;;;8.3;5.7;;;;;;;4.62;59.27637;963.8935;;;;
2020/01/15 07:33:19;;;;;;;8.5;5.7;;;;;;;4.47;59.52148;963.9174;;;;
2020/01/15 07:35:44;;;;;;;10.9;5.8;;;;;;;4.68;59.57422;963.9892;;;;
2020/01/15 07:38:09;;;;;;;8.3;5.2;;;;;;;5.42;56.8623;963.9858;;;;
2020/01/15 07:40:34;;;;;;;10.1;5.7;;;;;;;6.15;54.33691;963.9733;;;;
2020/01/15 07:42:59;;;;;;;7.1;5.4;;;;;;;6.59;52.61719;963.957;;;;
2020/01/15 07:45:24;;;;;;;10.7;5.6;;;;;;;6.76;52.15039;963.9331;;;;
2020/01/15 07:47:49;;;;;;;10.6;6.3;;;;;;;7.19;51.06152;963.9526;;;;
2020/01/15 07:50:15;;;;;;;12.3;6.1;;;;;;;8.01;49.24902;963.9267;;;;
2020/01/15 07:52:40;;;;;;;9.5;5.6;;;;;;;7.78;49.31641;963.9485;;;;
2020/01/15 07:55:05;;;;;;;9.9;5.6;;;;;;;8.06;48.42676;964.007;;;;
2020/01/15 07:57:30;;;;;;;11.5;6.3;;;;;;;8.12;48.24902;963.9622;;;;
2020/01/15 07:59:55;;;;;;;8.5;6.1;;;;;;;7.7;49.10938;963.9785;;;;
2020/01/15 08:02:20;;;;;;;9.4;6.8;;;;;;;7.48;51.14355;964.0349;;;;
2020/01/15 08:04:46;;;;;;;10.3;6.2;;;;;;;8.55;47.47949;964.0006;;;;
2020/01/15 08:07:11;;;;;;;9.7;6.3;;;;;;;8.49;47.07617;963.983;;;;
2020/01/15 08:09:36;;;;;;;10.2;6.4;;;;;;;8.36;47.25977;964.0126;;;;
2020/01/15 08:12:01;;;;;;;8.3;5.9;;;;;;;8.21;47.56055;963.9839;;;;
2020/01/15 08:14:26;;;;;;;9.3;6;;;;;;;8.87;46.51172;963.9467;;;;
2020/01/15 08:16:51;;;;;;;9.8;5.7;;;;;;;8.63;46.6709;963.9377;;;;
2020/01/15 08:19:16;;;;;;;9.5;5.6;;;;;;;8.18;47.85938;964.0391;;;;
2020/01/15 08:21:41;;;;;;;8.4;5.6;;;;;;;8.45;47.09668;964.0042;;;;
2020/01/15 08:24:07;;;;;;;7.5;5.1;;;;;;;8.48;46.15332;963.9858;;;;
2020/01/15 08:26:32;;;;;;;9.8;5.2;;;;;;;8.21;47.90918;964.057;;;;
2020/01/15 08:28:57;;;;;;;10.4;5.2;;;;;;;8.96;46.15918;964.0394;;;;
2020/01/15 08:31:22;;;;;;;8.2;5;;;;;;;9.8;43.85059;963.9441;;;;
2020/01/15 08:33:47;;;;;;;7.1;4.7;;;;;;;10.17;42.88086;963.9628;;;;
2020/01/15 08:36:12;;;;;;;6.6;4.9;;;;;;;11.23;40.6377;964.0256;;;;
2020/01/15 08:38:38;;;;;;;7.6;4.9;;;;;;;12.86;36.87891;963.9827;;;;
2020/01/15 08:41:03;;;;;;;6.7;4.9;;;;;;;15.22;32.08105;963.9783;;;;
2020/01/15 08:43:28;;;;;;;6.8;5;;;;;;;17.23;28.8125;964.028;;;;
2020/01/15 08:45:53;;;;;;;7.8;5.3;;;;;;;18.19;26.77539;964.0164;;;;
2020/01/15 08:48:18;;;;;;;8.4;5.2;;;;;;;19.3;25.7793;964.0211;;;;
2020/01/15 08:50:43;;;;;;;7.8;5;;;;;;;20.5;24.14648;964.0098;;;;
2020/01/15 08:53:09;;;;;;;11;5.5;;;;;;;21.67;22.45605;964.0311;;;;
2020/01/15 08:55:34;;;;;;;7.7;4.8;;;;;;;22.36;21.58789;964.0408;;;;
2020/01/15 08:57:59;;;;;;;7.7;4.8;;;;;;;22.75;20.77539;964.0608;;;;
2020/01/15 09:00:24;;;;;;;6.8;4.3;;;;;;;22.3;20.91113;963.9316;;;;
2020/01/15 09:02:49;;;;;;;11.7;5.1;;;;;;;19.36;24.46777;963.8331;;;;
2020/01/15 09:05:14;;;;;;;7.4;4.6;;;;;;;15.85;29.35059;963.9387;;;;
2020/01/15 09:07:40;;;;;;;8.4;4.4;;;;;;;14;33.30176;963.9028;;;;
2020/01/15 09:10:05;;;;;;;7.9;4.7;;;;;;;12.86;35.98438;963.8883;;;;
2020/01/15 09:12:30;;;;;;;8.1;4.7;;;;;;;11.97;36.46289;963.9688;;;;
2020/01/15 09:14:55;;;;;;;7.3;4.4;;;;;;;11.03;38.58984;963.9286;;;;
2020/01/15 09:17:28;;;;;;;7.6;4.4;;;;;;;10.57;40.42383;963.9614;;;;
2020/01/15 09:19:45;;;;;;;8.5;4.8;;;;;;;10.46;41.47949;963.9418;;;;
2020/01/15 09:22:10;;;;;;;7.8;4.4;;;;;;;9.94;41.68848;963.9613;;;;
2020/01/15 09:24:36;;;;;;;7.4;4.4;;;;;;;9.76;41.96289;963.9465;;;;
2020/01/15 09:27:01;;;;;;;7.9;4.3;;;;;;;9.58;42.59961;964.0031;;;;
2020/01/15 09:29:27;;;;;;;9.6;5;;;;;;;9.41;42.80566;964.0156;;;;
2020/01/15 09:31:59;;;;;;;7.5;4.6;;;;;;;9.2;43.31055;964.0637;;;;
2020/01/15 09:37:10;;;;;;;10.1;4.6;;;;;;;8.95;44.80371;964.0317;;;;
2020/01/15 09:43:57;;;;;;;14.8;4.8;;;;;;;8.65;45.91699;964.0505;;;;
2020/01/15 09:46:22;;;;;;;10.4;4.8;;;;;;;8.59;45.62988;964.0199;;;;
2020/01/15 09:48:47;;;;;;;10.2;4.3;;;;;;;8.63;46.19434;964.077;;;;
2020/01/15 09:51:12;;;;;;;10.6;4.6;;;;;;;8.65;45.46191;964.0326;;;;
2020/01/15 09:53:37;;;;;;;8.7;4.8;;;;;;;8.6;46.00391;963.984;;;;
2020/01/15 09:56:07;;;;;;;10.8;4.5;;;;;;;8.55;46.6748;963.9559;;;;
2020/01/15 09:58:32;;;;;;;13.6;4.9;;;;;;;8.6;46.42383;963.9856;;;;
2020/01/15 10:00:58;;;;;;;14;5;;;;;;;8.72;46.80957;963.9733;;;;
2020/01/15 10:03:27;;;;;;;10;5;;;;;;;8.9;46.17578;964.0449;;;;
2020/01/15 10:05:52;;;;;;;10;5;;;;;;;8.93;45.81738;964.0168;;;;
2020/01/15 10:08:17;;;;;;;8.4;4.8;;;;;;;8.99;45.88184;964.0158;;;;
2020/01/15 10:10:43;;;;;;;11.7;5.3;;;;;;;9.04;45.75977;963.9763;;;;
2020/01/15 10:13:08;;;;;;;8;4.8;;;;;;;9.36;45.89746;963.9116;;;;
2020/01/15 10:15:33;;;;;;;10.7;5;;;;;;;9.39;45.71387;963.8876;;;;
2020/01/15 10:17:58;;;;;;;8.7;5.3;;;;;;;9.41;45.4248;963.9357;;;;
2020/01/15 10:21:54;;;;;;;13.4;5.3;;;;;;;9.62;45.3877;963.8691;;;;
2020/01/15 10:24:19;;;;;;;11.5;5;;;;;;;9.76;45.61328;963.7986;;;;
2020/01/15 10:26:44;;;;;;;11.4;5.3;;;;;;;9.82;44.91602;963.7828;;;;
2020/01/15 10:29:10;;;;;;;14;5.4;;;;;;;9.87;44.91113;963.7519;;;;
2020/01/15 10:31:35;;;;;;;11.5;5;;;;;;;9.98;45.4375;963.7341;;;;
2020/01/15 10:34:00;;;;;;;11.8;5.1;;;;;;;9.96;45.07129;963.7843;;;;
2020/01/15 10:36:25;;;;;;;13.8;4.7;;;;;;;10.06;44.94238;963.7484;;;;
2020/01/15 10:38:50;;;;;;;11.6;4.9;;;;;;;10.12;45.38184;963.7994;;;;
2020/01/15 10:41:15;;;;;;;11.5;4.7;;;;;;;10;45.43848;963.75;;;;
2020/01/15 10:43:40;;;;;;;6.1;4;;;;;;;10.07;45.18945;963.7648;;;;
2020/01/15 10:46:05;;;;;;;7.4;4.1;;;;;;;10.09;45.89355;963.7645;;;;
2020/01/15 10:48:30;;;;;;;10.7;4.2;;;;;;;10.17;46.07813;963.8086;;;;
2020/01/15 10:50:55;;;;;;;7.5;3.9;;;;;;;10.24;45.83887;963.7579;;;;
2020/01/15 10:53:20;;;;;;;10.9;4;;;;;;;10.3;45.83398;963.7852;;;;
2020/01/15 10:55:45;;;;;;;8.2;4.2;;;;;;;10.37;45.92285;963.7552;;;;
2020/01/15 10:58:10;;;;;;;14.4;9.6;;;;;;;10.31;46.03418;963.7609;;;;
2020/01/15 11:00:36;;;;;;;9.7;4.7;;;;;;;10.4;45.8916;963.7435;;;;
2020/01/15 11:03:01;;;;;;;7.9;4;;;;;;;10.48;45.93457;963.724;;;;
2020/01/15 11:05:26;;;;;;;9.9;4.8;;;;;;;10.56;45.75586;963.743;;;;
2020/01/15 11:07:51;;;;;;;9.2;4.1;;;;;;;10.32;45.76563;963.6599;;;;
2020/01/15 11:10:16;;;;;;;8.3;4.1;;;;;;;10.46;45.62891;963.7321;;;;
2020/01/15 11:12:41;;;;;;;8;3.9;;;;;;;10.47;45.58301;963.6797;;;;
2020/01/15 11:15:06;;;;;;;9.3;4.1;;;;;;;10.54;46.16309;963.6588;;;;
2020/01/15 11:17:31;;;;;;;7.4;4;;;;;;;10.56;46.61133;963.6635;;;;
2020/01/15 11:19:56;;;;;;;10.5;4;;;;;;;10.59;46.25098;963.6019;;;;
2020/01/15 11:22:21;;;;;;;9.6;3.9;;;;;;;10.68;46.0498;963.532;;;;
2020/01/15 11:24:46;;;;;;;11.8;4.1;;;;;;;10.71;45.73633;963.5381;;;;
2020/01/15 11:27:11;;;;;;;9.4;4;;;;;;;10.76;45.49609;963.4867;;;;
2020/01/15 11:29:37;;;;;;;11.9;4;;;;;;;10.77;46.18848;963.4933;;;;
2020/01/15 11:32:02;;;;;;;8.7;3.7;;;;;;;10.84;45.99609;963.4871;;;;
2020/01/15 11:34:27;;;;;;;7.3;3.8;;;;;;;10.81;45.98145;963.4982;;;;
2020/01/15 11:36:52;;;;;;;6.5;3.7;;;;;;;10.85;45.95117;963.5066;;;;
2020/01/15 11:39:17;;;;;;;9.5;4;;;;;;;10.86;45.72949;963.4858;;;;
2020/01/15 11:41:42;;;;;;;7.5;3.6;;;;;;;10.92;45.83984;963.4771;;;;
2020/01/15 11:44:07;;;;;;;7.8;3.5;;;;;;;10.9;45.89648;963.4337;;;;
2020/01/15 11:46:32;;;;;;;6.6;3.7;;;;;;;10.89;45.94336;963.474;;;;
2020/01/15 11:48:57;;;;;;;6.1;3.5;;;;;;;10.91;46.27441;963.4185;;;;
2020/01/15 11:51:22;;;;;;;9.9;3.6;;;;;;;10.88;46.00098;963.3823;;;;
2020/01/15 11:53:47;;;;;;;6.7;3.6;;;;;;;10.96;46.3623;963.3406;;;;
2020/01/15 11:56:12;;;;;;;6.3;3.7;;;;;;;11.17;45.9375;963.3262;;;;
2020/01/15 11:58:37;;;;;;;10.4;3.9;;;;;;;11.46;45.05273;963.2377;;;;
2020/01/15 12:03:34;;;;;;;6.1;3.5;;;;;;;12.01;43.65137;963.1749;;;;
2020/01/15 12:05:53;;;;;;;4.9;3.2;;;;;;;12.25;42.62891;963.0929;;;;
2020/01/15 12:08:18;;;;;;;8;3.5;;;;;;;12.56;42.08203;963.0463;;;;
2020/01/15 12:10:43;;;;;;;9.2;3.6;;;;;;;12.74;42.22949;963.0472;;;;
2020/01/15 12:13:12;;;;;;;6.8;2.9;;;;;;;12.84;41.33105;963.0372;;;;
2020/01/15 12:15:33;;;;;;;6.8;3.3;;;;;;;13.07;40.96387;963.0014;;;;
2020/01/15 12:17:58;;;;;;;7.7;3.2;;;;;;;13.29;40.7373;962.9933;;;;
2020/01/15 12:20:37;;;;;;;6.2;2.9;;;;;;;13.43;39.45215;962.9456;;;;
2020/01/15 12:22:49;;;;;;;8.6;2.9;;;;;;;13.66;39.36816;962.9603;;;;
2020/01/15 12:25:13;;;;;;;9.6;3.2;;;;;;;13.6;39.46777;962.9364;;;;
2020/01/15 12:27:38;;;;;;;8.9;3.2;;;;;;;13.73;38.85352;962.9204;;;;
2020/01/15 12:30:04;;;;;;;6.6;3;;;;;;;13.79;39.11816;962.9495;;;;
2020/01/15 12:32:29;;;;;;;5.4;2.8;;;;;;;13.93;38.68262;962.9398;;;;
2020/01/15 12:34:54;;;;;;;7;3.1;;;;;;;13.84;38.56836;962.9044;;;;
2020/01/15 12:37:19;;;;;;;7.8;2.9;;;;;;;13.76;38.125;962.88;;;;
2020/01/15 12:39:44;;;;;;;4.7;2.6;;;;;;;13.74;38.41797;962.8792;;;;
2020/01/15 12:42:10;;;;;;;6.6;2.8;;;;;;;13.8;37.95215;962.887;;;;
2020/01/15 12:44:34;;;;;;;6.6;2.8;;;;;;;13.91;38.32715;962.8915;;;;
2020/01/15 12:47:00;;;;;;;8;3;;;;;;;14.03;38.18359;962.9085;;;;
2020/01/15 12:49:25;;;;;;;6.7;2.7;;;;;;;14.19;37.42969;962.8926;;;;
2020/01/15 12:51:50;;;;;;;7.7;2.9;;;;;;;14.11;37.9668;962.8778;;;;
2020/01/15 12:54:15;;;;;;;7.2;2.8;;;;;;;14.12;37.99121;962.8683;;;;
2020/01/15 12:56:40;;;;;;;8.3;2.9;;;;;;;14.19;37.53613;962.8826;;;;
2020/01/15 12:59:05;;;;;;;6.7;3;;;;;;;14.21;37.53809;962.8533;;;;
2020/01/15 13:01:30;;;;;;;5.2;2.7;;;;;;;14.25;37.64746;962.8569;;;;
2020/01/15 13:03:55;;;;;;;9.9;2.9;;;;;;;14.26;37.4834;962.847;;;;
2020/01/15 13:06:21;;;;;;;6.8;2.8;;;;;;;13.99;37.28223;962.8093;;;;
2020/01/15 13:08:54;;;;;;;6.1;2.6;;;;;;;13.9;37.4873;962.8789;;;;
2020/01/15 13:11:27;;;;;;;7.4;2.6;;;;;;;14.21;38.12891;962.834;;;;
2020/01/15 13:13:36;;;;;;;6;2.8;;;;;;;14.2;37.42969;962.8723;;;;
2020/01/15 13:16:01;;;;;;;4.5;2.7;;;;;;;14.31;37.25;962.8411;;;;
2020/01/15 13:18:26;;;;;;;5.2;2.6;;;;;;;14.4;37.7666;962.9033;;;;
2020/01/15 13:20:52;;;;;;;6.3;2.6;;;;;;;14.57;37.92285;962.8373;;;;
2020/01/15 13:23:17;;;;;;;7.9;2.5;;;;;;;14.49;36.6748;962.9163;;;;
2020/01/15 13:25:42;;;;;;;4.8;2.6;;;;;;;14.63;36.99414;962.9278;;;;
2020/01/15 13:28:07;;;;;;;5.5;2.6;;;;;;;14.69;37.22363;962.9705;;;;
2020/01/15 13:30:32;;;;;;;6.4;2.3;;;;;;;14.79;36.86523;962.9461;;;;
2020/01/15 13:32:57;;;;;;;5.2;2.5;;;;;;;14.81;36.85547;962.9727;;;;
2020/01/15 13:35:22;;;;;;;5.6;2.7;;;;;;;14.72;36.91797;962.9814;;;;
2020/01/15 13:37:47;;;;;;;5.1;2.6;;;;;;;14.78;36.60449;963.0224;;;;
2020/01/15 13:40:12;;;;;;;10.2;3.2;;;;;;;14.99;37.92383;963.0793;;;;
2020/01/15 13:42:40;;;;;;;4.7;2.8;;;;;;;14.97;37.07031;963.0872;;;;
2020/01/15 13:45:04;;;;;;;5.6;2.7;;;;;;;15.02;37.27637;963.1191;;;;
2020/01/15 13:47:29;;;;;;;8.4;3;;;;;;;14.99;36.91797;963.0925;;;;
2020/01/15 13:49:53;;;;;;;8.2;2.9;;;;;;;14.88;36.66016;963.0881;;;;
2020/01/15 13:52:18;;;;;;;9.6;2.9;;;;;;;14.85;37.0127;963.1594;;;;
2020/01/15 13:54:43;;;;;;;6.2;2.7;;;;;;;14.66;36.78418;963.1116;;;;
2020/01/15 13:57:08;;;;;;;6.5;2.8;;;;;;;14.51;37.16211;963.1334;;;;
2020/01/15 13:59:33;;;;;;;5.7;2.5;;;;;;;14.35;37.27832;963.1484;;;;
2020/01/15 14:01:58;;;;;;;5.9;2.4;;;;;;;14.47;37.11035;963.185;;;;
2020/01/15 14:04:24;;;;;;;8.1;2.8;;;;;;;14.57;37.30859;963.2457;;;;
2020/01/15 14:06:49;;;;;;;7.3;2.7;;;;;;;14.55;36.9873;963.22;;;;
2020/01/15 14:09:14;;;;;;;8;2.6;;;;;;;14.61;37.08691;963.2817;;;;
2020/01/15 14:11:39;;;;;;;7.8;2.7;;;;;;;14.73;37.13281;963.3754;;;;
2020/01/15 14:14:05;;;;;;;5.9;2.7;;;;;;;14.75;37.11035;963.4565;;;;
2020/01/15 14:16:30;;;;;;;5.7;2.5;;;;;;;14.64;37.58594;963.4807;;;;
2020/01/15 14:18:55;;;;;;;11.4;2.8;;;;;;;14.45;38.03125;963.5779;;;;
2020/01/15 14:21:20;;;;;;;6.9;2.6;;;;;;;14.47;37.61914;963.6811;;;;
2020/01/15 14:23:45;;;;;;;8;2.6;;;;;;;14.33;37.58301;963.6852;;;;
2020/01/15 14:26:10;;;;;;;6.4;2.6;;;;;;;14.36;37.76367;963.7017;;;;
2020/01/15 14:28:37;;;;;;;5.4;2.5;;;;;;;14.32;37.5;963.7079;;;;
2020/01/15 14:31:00;;;;;;;5.7;2.2;;;;;;;14.32;37.55957;963.7505;;;;
2020/01/15 14:33:26;;;;;;;9.1;2.6;;;;;;;14.17;37.72363;963.7745;;;;
2020/01/15 14:35:51;;;;;;;3.9;2.5;;;;;;;14.22;37.85742;963.8348;;;;
2020/01/15 14:38:16;;;;;;;5;2.5;;;;;;;14.14;38.14648;963.8524;;;;
2020/01/15 14:40:41;;;;;;;13.9;3;;;;;;;14.11;38.81641;963.8999;;;;